sensor_id;sensor_type;location;lat;lon;timestamp;pressure;altitude;pressure_sealevel;temperature;humidity
34674;BME280;20879;55.668;37.858;2023-03-19T00:02:03;101213.69;;;-4.52;57.03
34674;BME280;20879;55.668;37.858;2023-03-19T00:04:44;101228.63;;;-4.44;57.38
34674;BME280;20879;55.668;37.858;2023-03-19T00:07:14;101229.31;;;-4.46;57.81
34674;BME280;20879;55.668;37.858;2023-03-19T00:09:44;101210.94;;;-4.56;57.43
34674;BME280;20879;55.668;37.858;2023-03-19T00:12:14;101191.88;;;-4.64;57.46
34674;BME280;20879;55.668;37.858;2023-03-19T00:14:44;101223.25;;;-4.48;57.58
34674;BME280;20879;55.668;37.858;2023-03-19T00:17:15;101221.84;;;-4.57;57.91
34674;BME280;20879;55.668;37.858;2023-03-19T00:19:44;101221.28;;;-4.52;58.64
34674;BME280;20879;55.668;37.858;2023-03-19T00:22:19;101189.47;;;-4.74;58.43
34674;BME280;20879;55.668;37.858;2023-03-19T00:24:53;101210.75;;;-4.59;58.48
34674;BME280;20879;55.668;37.858;2023-03-19T00:27:23;101208.00;;;-4.62;59.77
34674;BME280;20879;55.668;37.858;2023-03-19T00:29:53;101186.16;;;-4.73;59.14
34674;BME280;20879;55.668;37.858;2023-03-19T00:32:42;101207.03;;;-4.64;59.38
34674;BME280;20879;55.668;37.858;2023-03-19T00:35:11;101195.91;;;-4.66;59.46
34674;BME280;20879;55.668;37.858;2023-03-19T00:37:41;101197.38;;;-4.69;59.04
34674;BME280;20879;55.668;37.858;2023-03-19T00:40:15;101176.63;;;-4.77;59.26
34674;BME280;20879;55.668;37.858;2023-03-19T00:42:50;101166.41;;;-4.91;59.93
34674;BME280;20879;55.668;37.858;2023-03-19T00:45:19;101191.00;;;-4.76;59.84
34674;BME280;20879;55.668;37.858;2023-03-19T00:47:56;101152.38;;;-5.11;60.32
34674;BME280;20879;55.668;37.858;2023-03-19T00:50:26;101193.63;;;-4.86;59.72
34674;BME280;20879;55.668;37.858;2023-03-19T00:52:55;101182.97;;;-4.82;59.89
34674;BME280;20879;55.668;37.858;2023-03-19T00:55:26;101103.84;;;-5.30;60.35
34674;BME280;20879;55.668;37.858;2023-03-19T00:57:55;101180.03;;;-4.88;60.29
34674;BME280;20879;55.668;37.858;2023-03-19T01:00:30;101155.78;;;-5.10;60.67
34674;BME280;20879;55.668;37.858;2023-03-19T01:03:01;101192.34;;;-4.93;60.29
34674;BME280;20879;55.668;37.858;2023-03-19T01:05:31;101178.06;;;-4.93;61.34
34674;BME280;20879;55.668;37.858;2023-03-19T01:08:00;101173.44;;;-4.98;60.38
34674;BME280;20879;55.668;37.858;2023-03-19T01:10:35;101155.56;;;-5.13;60.36
34674;BME280;20879;55.668;37.858;2023-03-19T01:13:04;101172.47;;;-5.12;60.85
34674;BME280;20879;55.668;37.858;2023-03-19T01:15:40;101176.75;;;-5.23;61.58
34674;BME280;20879;55.668;37.858;2023-03-19T01:18:12;101164.91;;;-5.24;61.44
34674;BME280;20879;55.668;37.858;2023-03-19T01:20:51;101170.06;;;-5.22;61.00
34674;BME280;20879;55.668;37.858;2023-03-19T01:23:20;101174.91;;;-5.25;60.93
34674;BME280;20879;55.668;37.858;2023-03-19T01:25:55;101176.41;;;-5.28;60.88
34674;BME280;20879;55.668;37.858;2023-03-19T01:28:26;101169.16;;;-5.35;62.46
34674;BME280;20879;55.668;37.858;2023-03-19T01:31:05;101139.63;;;-5.48;61.93
34674;BME280;20879;55.668;37.858;2023-03-19T01:34:00;101169.28;;;-5.33;61.68
34674;BME280;20879;55.668;37.858;2023-03-19T01:36:37;101168.41;;;-5.34;61.88
34674;BME280;20879;55.668;37.858;2023-03-19T01:39:13;101119.88;;;-5.65;62.68
34674;BME280;20879;55.668;37.858;2023-03-19T01:41:48;101165.03;;;-5.34;62.19
34674;BME280;20879;55.668;37.858;2023-03-19T01:44:39;101145.59;;;-5.47;61.37
34674;BME280;20879;55.668;37.858;2023-03-19T01:47:43;101146.44;;;-5.47;61.83
34674;BME280;20879;55.668;37.858;2023-03-19T01:50:27;101159.41;;;-5.30;61.51
34674;BME280;20879;55.668;37.858;2023-03-19T01:53:22;101128.78;;;-5.58;61.73
34674;BME280;20879;55.668;37.858;2023-03-19T01:56:11;101158.75;;;-5.39;62.06
34674;BME280;20879;55.668;37.858;2023-03-19T01:59:00;101159.41;;;-5.42;61.94
34674;BME280;20879;55.668;37.858;2023-03-19T02:01:51;101148.00;;;-5.49;62.90
34674;BME280;20879;55.668;37.858;2023-03-19T02:04:23;101156.66;;;-5.45;62.60
34674;BME280;20879;55.668;37.858;2023-03-19T02:07:02;101119.66;;;-5.68;63.01
34674;BME280;20879;55.668;37.858;2023-03-19T02:09:38;101146.34;;;-5.48;62.90
34674;BME280;20879;55.668;37.858;2023-03-19T02:12:09;101145.25;;;-5.52;63.79
34674;BME280;20879;55.668;37.858;2023-03-19T02:14:38;101141.19;;;-5.50;63.07
34674;BME280;20879;55.668;37.858;2023-03-19T02:17:08;101129.31;;;-5.63;62.92
34674;BME280;20879;55.668;37.858;2023-03-19T02:19:41;101144.13;;;-5.67;63.97
34674;BME280;20879;55.668;37.858;2023-03-19T02:22:22;101148.97;;;-5.58;63.38
34674;BME280;20879;55.668;37.858;2023-03-19T02:25:02;101133.50;;;-5.51;63.11
34674;BME280;20879;55.668;37.858;2023-03-19T02:27:40;101139.84;;;-5.56;63.34
34674;BME280;20879;55.668;37.858;2023-03-19T02:30:21;101117.59;;;-5.74;64.37
34674;BME280;20879;55.668;37.858;2023-03-19T02:32:51;101130.44;;;-5.59;64.18
34674;BME280;20879;55.668;37.858;2023-03-19T02:35:28;101144.34;;;-5.52;63.47
34674;BME280;20879;55.668;37.858;2023-03-19T02:38:00;101146.44;;;-5.58;63.98
34674;BME280;20879;55.668;37.858;2023-03-19T02:40:42;101142.50;;;-5.55;63.59
34674;BME280;20879;55.668;37.858;2023-03-19T02:43:14;101147.19;;;-5.59;63.96
34674;BME280;20879;55.668;37.858;2023-03-19T02:45:44;101146.44;;;-5.58;63.97
34674;BME280;20879;55.668;37.858;2023-03-19T02:48:13;101129.41;;;-5.73;63.91
34674;BME280;20879;55.668;37.858;2023-03-19T02:50:42;101124.03;;;-5.66;64.23
34674;BME280;20879;55.668;37.858;2023-03-19T02:53:12;101134.25;;;-5.64;64.54
34674;BME280;20879;55.668;37.858;2023-03-19T02:55:41;101139.53;;;-5.61;64.83
34674;BME280;20879;55.668;37.858;2023-03-19T02:58:13;101108.03;;;-5.78;64.78
34674;BME280;20879;55.668;37.858;2023-03-19T03:00:43;101125.28;;;-5.60;65.31
34674;BME280;20879;55.668;37.858;2023-03-19T03:03:13;101114.50;;;-5.70;64.85
34674;BME280;20879;55.668;37.858;2023-03-19T03:05:42;101122.16;;;-5.68;64.83
34674;BME280;20879;55.668;37.858;2023-03-19T03:08:12;101097.03;;;-5.90;65.11
34674;BME280;20879;55.668;37.858;2023-03-19T03:10:41;101126.03;;;-5.73;65.59
34674;BME280;20879;55.668;37.858;2023-03-19T03:13:17;101117.81;;;-5.71;65.31
34674;BME280;20879;55.668;37.858;2023-03-19T03:15:47;101087.16;;;-5.87;65.00
34674;BME280;20879;55.668;37.858;2023-03-19T03:18:17;101125.16;;;-5.74;65.70
34674;BME280;20879;55.668;37.858;2023-03-19T03:20:46;101114.81;;;-5.77;65.61
34674;BME280;20879;55.668;37.858;2023-03-19T03:23:17;101101.66;;;-5.85;65.89
34674;BME280;20879;55.668;37.858;2023-03-19T03:25:48;101108.13;;;-5.88;65.78
34674;BME280;20879;55.668;37.858;2023-03-19T03:28:30;101118.88;;;-5.79;66.22
34674;BME280;20879;55.668;37.858;2023-03-19T03:31:00;101085.34;;;-6.02;66.47
34674;BME280;20879;55.668;37.858;2023-03-19T03:33:34;101110.09;;;-5.84;66.05
34674;BME280;20879;55.668;37.858;2023-03-19T03:36:04;101113.94;;;-5.89;66.50
34674;BME280;20879;55.668;37.858;2023-03-19T03:38:34;101108.88;;;-5.89;66.04
34674;BME280;20879;55.668;37.858;2023-03-19T03:41:03;101082.22;;;-6.09;65.90
34674;BME280;20879;55.668;37.858;2023-03-19T03:43:41;101103.31;;;-5.97;66.31
34674;BME280;20879;55.668;37.858;2023-03-19T03:46:16;101116.34;;;-5.91;66.11
34674;BME280;20879;55.668;37.858;2023-03-19T03:48:47;101118.97;;;-5.89;65.96
34674;BME280;20879;55.668;37.858;2023-03-19T03:51:22;101114.81;;;-5.89;66.01
34674;BME280;20879;55.668;37.858;2023-03-19T03:53:51;101109.75;;;-5.89;66.35
34674;BME280;20879;55.668;37.858;2023-03-19T03:56:26;101088.94;;;-5.98;65.97
34674;BME280;20879;55.668;37.858;2023-03-19T03:58:57;101080.81;;;-6.06;66.28
34674;BME280;20879;55.668;37.858;2023-03-19T04:01:26;101084.31;;;-6.04;65.92
34674;BME280;20879;55.668;37.858;2023-03-19T04:03:56;101101.44;;;-5.88;66.57
34674;BME280;20879;55.668;37.858;2023-03-19T04:06:30;101103.84;;;-5.89;66.56
34674;BME280;20879;55.668;37.858;2023-03-19T04:09:12;101097.72;;;-5.81;65.94
34674;BME280;20879;55.668;37.858;2023-03-19T04:11:42;101064.16;;;-6.04;66.01
34674;BME280;20879;55.668;37.858;2023-03-19T04:14:14;101092.44;;;-5.84;65.63
34674;BME280;20879;55.668;37.858;2023-03-19T04:16:43;101093.88;;;-5.76;66.16
34674;BME280;20879;55.668;37.858;2023-03-19T04:19:14;101094.88;;;-5.74;66.14
34674;BME280;20879;55.668;37.858;2023-03-19T04:21:48;101091.56;;;-5.73;65.81
34674;BME280;20879;55.668;37.858;2023-03-19T04:24:17;101087.84;;;-5.66;65.80
34674;BME280;20879;55.668;37.858;2023-03-19T04:26:47;101083.03;;;-5.63;65.25
34674;BME280;20879;55.668;37.858;2023-03-19T04:29:19;101079.97;;;-5.71;66.95
34674;BME280;20879;55.668;37.858;2023-03-19T04:31:54;101070.28;;;-5.76;66.43
34674;BME280;20879;55.668;37.858;2023-03-19T04:34:23;101049.78;;;-5.81;66.60
34674;BME280;20879;55.668;37.858;2023-03-19T04:36:58;101055.16;;;-5.76;66.46
34674;BME280;20879;55.668;37.858;2023-03-19T04:39:37;101067.44;;;-5.57;66.35
34674;BME280;20879;55.668;37.858;2023-03-19T04:42:08;101069.31;;;-5.55;67.07
34674;BME280;20879;55.668;37.858;2023-03-19T04:44:55;101060.63;;;-5.47;66.65
34674;BME280;20879;55.668;37.858;2023-03-19T04:47:24;101072.47;;;-5.34;65.82
34674;BME280;20879;55.668;37.858;2023-03-19T04:50:00;101063.56;;;-5.29;65.97
34674;BME280;20879;55.668;37.858;2023-03-19T04:52:32;101065.88;;;-5.32;65.67
34674;BME280;20879;55.668;37.858;2023-03-19T04:55:03;101072.56;;;-5.20;65.31
34674;BME280;20879;55.668;37.858;2023-03-19T04:57:45;101064.50;;;-5.03;65.71
34674;BME280;20879;55.668;37.858;2023-03-19T05:00:18;101047.69;;;-5.02;64.77
34674;BME280;20879;55.668;37.858;2023-03-19T05:02:48;101055.66;;;-4.84;64.66
34674;BME280;20879;55.668;37.858;2023-03-19T05:05:18;101047.94;;;-4.74;64.34
34674;BME280;20879;55.668;37.858;2023-03-19T05:07:48;101065.16;;;-4.05;63.53
34674;BME280;20879;55.668;37.858;2023-03-19T05:10:17;101064.97;;;-3.81;62.31
34674;BME280;20879;55.668;37.858;2023-03-19T05:12:47;101068.22;;;-3.70;62.00
34674;BME280;20879;55.668;37.858;2023-03-19T05:15:19;101044.91;;;-3.78;61.31
34674;BME280;20879;55.668;37.858;2023-03-19T05:17:58;101047.34;;;-3.93;61.68
34674;BME280;20879;55.668;37.858;2023-03-19T05:20:34;101020.09;;;-4.10;61.92
34674;BME280;20879;55.668;37.858;2023-03-19T05:23:07;101063.63;;;-3.76;61.65
34674;BME280;20879;55.668;37.858;2023-03-19T05:25:46;101027.50;;;-4.00;61.47
34674;BME280;20879;55.668;37.858;2023-03-19T05:28:22;101060.44;;;-3.73;61.76
34674;BME280;20879;55.668;37.858;2023-03-19T05:30:55;101049.78;;;-3.67;61.56
34674;BME280;20879;55.668;37.858;2023-03-19T05:33:41;101051.94;;;-3.60;61.24
34674;BME280;20879;55.668;37.858;2023-03-19T05:36:16;101045.63;;;-3.54;61.38
34674;BME280;20879;55.668;37.858;2023-03-19T05:38:58;101034.09;;;-3.48;61.18
34674;BME280;20879;55.668;37.858;2023-03-19T05:41:33;101040.72;;;-3.37;61.01
34674;BME280;20879;55.668;37.858;2023-03-19T05:44:05;101045.56;;;-3.27;60.74
34674;BME280;20879;55.668;37.858;2023-03-19T05:47:09;101035.38;;;-3.42;60.55
34674;BME280;20879;55.668;37.858;2023-03-19T05:49:47;101037.78;;;-3.30;60.85
34674;BME280;20879;55.668;37.858;2023-03-19T05:52:27;101033.91;;;-3.25;60.22
34674;BME280;20879;55.668;37.858;2023-03-19T05:54:58;101021.44;;;-3.35;60.25
34674;BME280;20879;55.668;37.858;2023-03-19T05:57:51;101027.25;;;-3.23;60.35
34674;BME280;20879;55.668;37.858;2023-03-19T06:00:24;101029.97;;;-3.20;60.17
34674;BME280;20879;55.668;37.858;2023-03-19T06:03:02;101023.44;;;-3.16;60.00
34674;BME280;20879;55.668;37.858;2023-03-19T06:05:47;101011.19;;;-3.23;60.21
34674;BME280;20879;55.668;37.858;2023-03-19T06:08:35;101023.94;;;-3.22;60.14
34674;BME280;20879;55.668;37.858;2023-03-19T06:11:11;101018.38;;;-3.16;60.50
34674;BME280;20879;55.668;37.858;2023-03-19T06:13:42;101016.75;;;-3.29;60.62
34674;BME280;20879;55.668;37.858;2023-03-19T06:16:15;100990.91;;;-3.23;60.84
34674;BME280;20879;55.668;37.858;2023-03-19T06:18:54;101006.13;;;-2.95;60.50
34674;BME280;20879;55.668;37.858;2023-03-19T06:21:23;100999.53;;;-3.06;60.50
34674;BME280;20879;55.668;37.858;2023-03-19T06:23:57;100989.34;;;-3.21;60.56
34674;BME280;20879;55.668;37.858;2023-03-19T06:26:32;101005.50;;;-3.06;60.43
34674;BME280;20879;55.668;37.858;2023-03-19T06:29:09;100984.72;;;-3.00;60.26
34674;BME280;20879;55.668;37.858;2023-03-19T06:31:40;100994.06;;;-2.84;60.28
34674;BME280;20879;55.668;37.858;2023-03-19T06:34:21;100991.69;;;-2.53;60.30
34674;BME280;20879;55.668;37.858;2023-03-19T06:36:57;100966.59;;;-2.63;59.17
34674;BME280;20879;55.668;37.858;2023-03-19T06:39:26;100935.75;;;-2.99;59.64
34674;BME280;20879;55.668;37.858;2023-03-19T06:41:56;100949.94;;;-2.88;59.84
34674;BME280;20879;55.668;37.858;2023-03-19T06:44:26;100977.09;;;-2.42;59.78
34674;BME280;20879;55.668;37.858;2023-03-19T06:46:55;100956.59;;;-2.30;59.37
34674;BME280;20879;55.668;37.858;2023-03-19T06:49:27;100959.16;;;-2.30;58.76
34674;BME280;20879;55.668;37.858;2023-03-19T06:51:56;100965.91;;;-2.46;58.94
34674;BME280;20879;55.668;37.858;2023-03-19T06:54:26;100969.03;;;-2.65;60.04
34674;BME280;20879;55.668;37.858;2023-03-19T06:56:55;100956.69;;;-2.73;59.68
34674;BME280;20879;55.668;37.858;2023-03-19T06:59:24;100968.16;;;-2.65;60.11
34674;BME280;20879;55.668;37.858;2023-03-19T07:01:56;100967.81;;;-2.56;60.58
34674;BME280;20879;55.668;37.858;2023-03-19T07:04:28;100955.59;;;-2.49;59.63
34674;BME280;20879;55.668;37.858;2023-03-19T07:06:57;100945.34;;;-2.50;59.84
34674;BME280;20879;55.668;37.858;2023-03-19T07:09:33;100951.44;;;-2.32;59.62
34674;BME280;20879;55.668;37.858;2023-03-19T07:12:07;100954.16;;;-2.14;59.35
34674;BME280;20879;55.668;37.858;2023-03-19T07:14:37;100941.44;;;-1.99;59.06
34674;BME280;20879;55.668;37.858;2023-03-19T07:17:11;100907.66;;;-1.98;59.21
34674;BME280;20879;55.668;37.858;2023-03-19T07:19:43;100946.69;;;-1.64;58.41
34674;BME280;20879;55.668;37.858;2023-03-19T07:22:19;100937.41;;;-1.95;59.12
34674;BME280;20879;55.668;37.858;2023-03-19T07:24:48;100947.81;;;-1.90;59.39
34674;BME280;20879;55.668;37.858;2023-03-19T07:27:18;100901.88;;;-1.95;59.35
34674;BME280;20879;55.668;37.858;2023-03-19T07:29:47;100943.34;;;-1.63;58.65
34674;BME280;20879;55.668;37.858;2023-03-19T07:32:29;100952.50;;;-1.82;59.71
34674;BME280;20879;55.668;37.858;2023-03-19T07:35:00;100945.88;;;-1.80;59.16
34674;BME280;20879;55.668;37.858;2023-03-19T07:37:30;100943.63;;;-1.90;59.72
34674;BME280;20879;55.668;37.858;2023-03-19T07:39:59;100943.25;;;-1.81;59.25
34674;BME280;20879;55.668;37.858;2023-03-19T07:42:30;100944.97;;;-1.80;59.27
34674;BME280;20879;55.668;37.858;2023-03-19T07:44:59;100923.84;;;-1.96;59.54
34674;BME280;20879;55.668;37.858;2023-03-19T07:47:30;100933.78;;;-1.84;59.25
34674;BME280;20879;55.668;37.858;2023-03-19T07:50:01;100942.63;;;-1.77;59.26
34674;BME280;20879;55.668;37.858;2023-03-19T07:52:35;100936.34;;;-1.67;59.57
34674;BME280;20879;55.668;37.858;2023-03-19T07:55:06;100935.28;;;-1.56;59.20
34674;BME280;20879;55.668;37.858;2023-03-19T07:57:40;100940.59;;;-1.35;58.94
34674;BME280;20879;55.668;37.858;2023-03-19T08:00:17;100932.97;;;-1.35;58.59
34674;BME280;20879;55.668;37.858;2023-03-19T08:02:50;100937.28;;;-1.34;58.33
34674;BME280;20879;55.668;37.858;2023-03-19T08:05:21;100921.41;;;-1.46;58.61
34674;BME280;20879;55.668;37.858;2023-03-19T08:07:51;100928.63;;;-1.37;58.21
34674;BME280;20879;55.668;37.858;2023-03-19T08:10:20;100940.38;;;-1.23;58.17
34674;BME280;20879;55.668;37.858;2023-03-19T08:12:49;100925.22;;;-1.05;58.17
34674;BME280;20879;55.668;37.858;2023-03-19T08:15:24;100887.00;;;-1.07;57.91
34674;BME280;20879;55.668;37.858;2023-03-19T08:17:57;100903.31;;;-0.68;57.57
34674;BME280;20879;55.668;37.858;2023-03-19T08:20:34;100917.75;;;-0.67;57.00
34674;BME280;20879;55.668;37.858;2023-03-19T08:23:04;100909.44;;;-0.81;57.73
34674;BME280;20879;55.668;37.858;2023-03-19T08:25:33;100872.50;;;-0.91;57.87
34674;BME280;20879;55.668;37.858;2023-03-19T08:28:02;100873.78;;;-0.65;57.20
34674;BME280;20879;55.668;37.858;2023-03-19T08:30:31;100901.81;;;-0.47;56.67
34674;BME280;20879;55.668;37.858;2023-03-19T08:33:04;100899.03;;;-0.51;56.68
34674;BME280;20879;55.668;37.858;2023-03-19T08:35:41;100898.03;;;-0.55;56.80
34674;BME280;20879;55.668;37.858;2023-03-19T08:38:16;100874.69;;;-0.64;56.88
34674;BME280;20879;55.668;37.858;2023-03-19T08:40:48;100873.72;;;-0.66;56.95
34674;BME280;20879;55.668;37.858;2023-03-19T08:43:17;100884.78;;;-0.48;57.06
34674;BME280;20879;55.668;37.858;2023-03-19T08:45:46;100878.59;;;-0.53;56.99
34674;BME280;20879;55.668;37.858;2023-03-19T08:48:22;100870.19;;;-0.52;57.02
34674;BME280;20879;55.668;37.858;2023-03-19T08:51:01;100873.97;;;-0.44;56.85
34674;BME280;20879;55.668;37.858;2023-03-19T08:53:31;100866.34;;;-0.44;57.27
34674;BME280;20879;55.668;37.858;2023-03-19T08:56:05;100860.50;;;-0.59;56.81
34674;BME280;20879;55.668;37.858;2023-03-19T08:58:35;100860.34;;;-0.62;57.18
34674;BME280;20879;55.668;37.858;2023-03-19T09:01:07;100826.72;;;-0.75;57.34
34674;BME280;20879;55.668;37.858;2023-03-19T09:03:37;100843.63;;;-0.57;56.83
34674;BME280;20879;55.668;37.858;2023-03-19T09:06:13;100825.47;;;-0.65;56.52
34674;BME280;20879;55.668;37.858;2023-03-19T09:08:45;100861.41;;;-0.41;56.71
34674;BME280;20879;55.668;37.858;2023-03-19T09:11:21;100853.31;;;-0.32;56.67
34674;BME280;20879;55.668;37.858;2023-03-19T09:13:50;100836.50;;;-0.28;56.43
34674;BME280;20879;55.668;37.858;2023-03-19T09:16:20;100842.47;;;-0.10;56.26
34674;BME280;20879;55.668;37.858;2023-03-19T09:18:54;100842.63;;;0.13;56.45
34674;BME280;20879;55.668;37.858;2023-03-19T09:21:27;100833.13;;;0.28;55.83
34674;BME280;20879;55.668;37.858;2023-03-19T09:23:57;100830.38;;;0.43;55.99
34674;BME280;20879;55.668;37.858;2023-03-19T09:26:27;100807.44;;;0.43;55.75
34674;BME280;20879;55.668;37.858;2023-03-19T09:28:59;100769.97;;;0.41;55.48
34674;BME280;20879;55.668;37.858;2023-03-19T09:31:29;100811.38;;;0.76;55.71
34674;BME280;20879;55.668;37.858;2023-03-19T09:34:09;100795.81;;;0.69;54.95
34674;BME280;20879;55.668;37.858;2023-03-19T09:36:41;100779.31;;;0.61;54.90
34674;BME280;20879;55.668;37.858;2023-03-19T09:39:14;100802.25;;;0.81;55.17
34674;BME280;20879;55.668;37.858;2023-03-19T09:41:57;100802.63;;;0.90;55.31
34674;BME280;20879;55.668;37.858;2023-03-19T09:44:32;100799.38;;;0.94;55.20
34674;BME280;20879;55.668;37.858;2023-03-19T09:47:23;100760.94;;;0.68;55.06
34674;BME280;20879;55.668;37.858;2023-03-19T09:49:55;100786.75;;;0.97;55.59
34674;BME280;20879;55.668;37.858;2023-03-19T09:52:36;100793.97;;;1.08;55.19
34674;BME280;20879;55.668;37.858;2023-03-19T09:55:30;100783.41;;;0.98;54.87
34674;BME280;20879;55.668;37.858;2023-03-19T09:58:11;100783.66;;;1.04;54.87
34674;BME280;20879;55.668;37.858;2023-03-19T10:00:42;100777.91;;;0.89;55.92
34674;BME280;20879;55.668;37.858;2023-03-19T10:03:30;100779.84;;;0.95;55.96
34674;BME280;20879;55.668;37.858;2023-03-19T10:06:23;100758.47;;;0.91;55.26
34674;BME280;20879;55.668;37.858;2023-03-19T10:09:23;100758.59;;;0.94;55.90
34674;BME280;20879;55.668;37.858;2023-03-19T10:12:01;100777.13;;;0.90;56.19
34674;BME280;20879;55.668;37.858;2023-03-19T10:14:54;100762.13;;;0.77;56.07
34674;BME280;20879;55.668;37.858;2023-03-19T10:17:31;100770.63;;;0.77;56.53
34674;BME280;20879;55.668;37.858;2023-03-19T10:20:15;100715.66;;;0.63;56.16
34674;BME280;20879;55.668;37.858;2023-03-19T10:22:48;100746.41;;;0.87;56.09
34674;BME280;20879;55.668;37.858;2023-03-19T10:25:23;100752.38;;;1.09;55.80
34674;BME280;20879;55.668;37.858;2023-03-19T10:28:10;100764.56;;;1.16;55.40
34674;BME280;20879;55.668;37.858;2023-03-19T10:30:46;100752.09;;;1.24;55.98
34674;BME280;20879;55.668;37.858;2023-03-19T10:33:25;100724.78;;;1.21;55.94
34674;BME280;20879;55.668;37.858;2023-03-19T10:36:04;100745.44;;;1.50;55.50
34674;BME280;20879;55.668;37.858;2023-03-19T10:38:42;100752.75;;;1.63;55.32
34674;BME280;20879;55.668;37.858;2023-03-19T10:41:30;100753.66;;;1.65;55.24
34674;BME280;20879;55.668;37.858;2023-03-19T10:44:06;100736.75;;;1.67;55.14
34674;BME280;20879;55.668;37.858;2023-03-19T10:46:40;100745.72;;;1.80;55.32
34674;BME280;20879;55.668;37.858;2023-03-19T10:49:14;100714.09;;;1.77;55.09
34674;BME280;20879;55.668;37.858;2023-03-19T10:51:48;100737.75;;;1.95;55.01
34674;BME280;20879;55.668;37.858;2023-03-19T10:54:21;100729.88;;;1.89;54.56
34674;BME280;20879;55.668;37.858;2023-03-19T10:56:59;100733.66;;;2.00;54.22
34674;BME280;20879;55.668;37.858;2023-03-19T10:59:36;100740.25;;;1.94;54.44
34674;BME280;20879;55.668;37.858;2023-03-19T11:02:26;100735.09;;;1.92;54.31
34674;BME280;20879;55.668;37.858;2023-03-19T11:05:23;100735.94;;;1.92;54.40
34674;BME280;20879;55.668;37.858;2023-03-19T11:07:57;100738.44;;;1.91;54.32
34674;BME280;20879;55.668;37.858;2023-03-19T11:10:45;100730.06;;;1.71;55.09
34674;BME280;20879;55.668;37.858;2023-03-19T11:13:21;100742.44;;;1.84;55.19
34674;BME280;20879;55.668;37.858;2023-03-19T11:15:55;100716.06;;;1.84;54.95
34674;BME280;20879;55.668;37.858;2023-03-19T11:18:36;100723.34;;;1.97;53.94
34674;BME280;20879;55.668;37.858;2023-03-19T11:21:07;100693.88;;;1.83;54.18
34674;BME280;20879;55.668;37.858;2023-03-19T11:23:39;100719.34;;;2.04;54.50
34674;BME280;20879;55.668;37.858;2023-03-19T11:26:17;100709.13;;;2.04;54.74
34674;BME280;20879;55.668;37.858;2023-03-19T11:28:51;100671.00;;;1.86;54.42
34674;BME280;20879;55.668;37.858;2023-03-19T11:31:25;100704.75;;;2.01;54.45
34674;BME280;20879;55.668;37.858;2023-03-19T11:34:13;100705.66;;;2.03;54.98
34674;BME280;20879;55.668;37.858;2023-03-19T11:36:50;100688.69;;;2.04;54.57
34674;BME280;20879;55.668;37.858;2023-03-19T11:39:26;100648.00;;;1.86;54.74
34674;BME280;20879;55.668;37.858;2023-03-19T11:42:06;100697.56;;;2.15;54.71
34674;BME280;20879;55.668;37.858;2023-03-19T11:44:50;100625.53;;;1.75;54.77
34674;BME280;20879;55.668;37.858;2023-03-19T11:47:30;100682.03;;;2.09;54.63
34674;BME280;20879;55.668;37.858;2023-03-19T11:50:14;100685.66;;;2.16;54.86
34674;BME280;20879;55.668;37.858;2023-03-19T11:53:04;100681.47;;;2.18;54.83
34674;BME280;20879;55.668;37.858;2023-03-19T11:55:40;100681.38;;;2.15;54.77
34674;BME280;20879;55.668;37.858;2023-03-19T11:58:40;100678.91;;;2.18;54.73
34674;BME280;20879;55.668;37.858;2023-03-19T12:01:20;100656.38;;;2.06;54.96
34674;BME280;20879;55.668;37.858;2023-03-19T12:04:23;100669.72;;;2.23;55.14
34674;BME280;20879;55.668;37.858;2023-03-19T12:07:11;100656.91;;;2.21;54.46
34674;BME280;20879;55.668;37.858;2023-03-19T12:09:50;100661.28;;;2.25;54.86
34674;BME280;20879;55.668;37.858;2023-03-19T12:12:27;100647.44;;;2.19;55.18
34674;BME280;20879;55.668;37.858;2023-03-19T12:15:12;100654.69;;;2.32;54.62
34674;BME280;20879;55.668;37.858;2023-03-19T12:18:00;100611.31;;;2.08;54.65
34674;BME280;20879;55.668;37.858;2023-03-19T12:20:51;100620.75;;;2.10;54.58
34674;BME280;20879;55.668;37.858;2023-03-19T12:23:41;100640.13;;;2.30;55.08
34674;BME280;20879;55.668;37.858;2023-03-19T12:26:17;100632.81;;;2.15;56.24
34674;BME280;20879;55.668;37.858;2023-03-19T12:29:00;100635.28;;;2.12;55.89
34674;BME280;20879;55.668;37.858;2023-03-19T12:31:50;100631.03;;;2.12;56.10
34674;BME280;20879;55.668;37.858;2023-03-19T12:34:33;100624.19;;;2.11;55.84
34674;BME280;20879;55.668;37.858;2023-03-19T12:37:13;100615.66;;;2.10;55.94
34674;BME280;20879;55.668;37.858;2023-03-19T12:40:00;100617.44;;;2.13;55.93
34674;BME280;20879;55.668;37.858;2023-03-19T12:42:39;100615.75;;;2.14;56.46
34674;BME280;20879;55.668;37.858;2023-03-19T12:52:40;100602.38;;;1.95;56.37
34674;BME280;20879;55.668;37.858;2023-03-19T12:55:15;100536.16;;;1.50;56.34
34674;BME280;20879;55.668;37.858;2023-03-19T12:57:48;100596.44;;;1.96;56.53
34674;BME280;20879;55.668;37.858;2023-03-19T13:00:29;100560.16;;;1.81;56.83
34674;BME280;20879;55.668;37.858;2023-03-19T13:03:06;100589.13;;;2.07;56.45
34674;BME280;20879;55.668;37.858;2023-03-19T13:05:46;100571.81;;;1.98;56.96
34674;BME280;20879;55.668;37.858;2023-03-19T13:08:25;100575.09;;;1.94;57.30
34674;BME280;20879;55.668;37.858;2023-03-19T13:11:04;100576.22;;;2.02;57.28
34674;BME280;20879;55.668;37.858;2023-03-19T13:13:41;100575.28;;;2.00;57.07
34674;BME280;20879;55.668;37.858;2023-03-19T13:16:22;100525.13;;;1.77;57.23
34674;BME280;20879;55.668;37.858;2023-03-19T13:19:03;100533.03;;;1.84;56.99
34674;BME280;20879;55.668;37.858;2023-03-19T13:21:39;100561.91;;;2.07;57.38
34674;BME280;20879;55.668;37.858;2023-03-19T13:24:18;100560.28;;;2.09;57.44
34674;BME280;20879;55.668;37.858;2023-03-19T13:26:54;100522.34;;;1.96;57.12
34674;BME280;20879;55.668;37.858;2023-03-19T13:29:27;100539.00;;;2.10;56.76
34674;BME280;20879;55.668;37.858;2023-03-19T13:32:01;100524.50;;;2.09;56.46
34674;BME280;20879;55.668;37.858;2023-03-19T13:34:37;100530.63;;;2.15;56.76